sensor_id;sensor_type;location;lat;lon;timestamp;P1;durP1;ratioP1;P2;durP2;ratioP2
72813;SDS011;60945;48.516;-2.768;2022-11-20T00:01:43;4.18;;;2.40;;
72813;SDS011;60945;48.516;-2.768;2022-11-20T00:04:10;5.22;;;2.85;;
72813;SDS011;60945;48.516;-2.768;2022-11-20T00:06:37;4.90;;;2.00;;
72813;SDS011;60945;48.516;-2.768;2022-11-20T00:09:02;5.10;;;2.55;;
72813;SDS011;60945;48.516;-2.768;2022-11-20T00:11:30;3.38;;;2.03;;
72813;SDS011;60945;48.516;-2.768;2022-11-20T00:13:57;4.10;;;1.80;;
72813;SDS011;60945;48.516;-2.768;2022-11-20T00:16:27;4.65;;;1.75;;
72813;SDS011;60945;48.516;-2.768;2022-11-20T00:18:55;4.65;;;2.00;;
72813;SDS011;60945;48.516;-2.768;2022-11-20T00:21:22;5.45;;;2.33;;
72813;SDS011;60945;48.516;-2.768;2022-11-20T00:23:49;4.30;;;2.03;;
72813;SDS011;60945;48.516;-2.768;2022-11-20T00:26:16;6.38;;;2.25;;
72813;SDS011;60945;48.516;-2.768;2022-11-20T00:28:44;4.68;;;1.90;;
72813;SDS011;60945;48.516;-2.768;2022-11-20T00:31:24;4.55;;;1.80;;
72813;SDS011;60945;48.516;-2.768;2022-11-20T00:33:50;3.83;;;2.15;;
72813;SDS011;60945;48.516;-2.768;2022-11-20T00:36:16;4.82;;;2.00;;
72813;SDS011;60945;48.516;-2.768;2022-11-20T00:38:43;4.13;;;1.90;;
72813;SDS011;60945;48.516;-2.768;2022-11-20T00:41:14;6.35;;;2.13;;
72813;SDS011;60945;48.516;-2.768;2022-11-20T00:43:41;5.60;;;1.95;;
72813;SDS011;60945;48.516;-2.768;2022-11-20T00:46:08;7.20;;;3.03;;
72813;SDS011;60945;48.516;-2.768;2022-11-20T00:48:41;4.82;;;1.75;;
72813;SDS011;60945;48.516;-2.768;2022-11-20T00:51:08;3.72;;;1.98;;
72813;SDS011;60945;48.516;-2.768;2022-11-20T00:53:34;3.50;;;2.00;;
72813;SDS011;60945;48.516;-2.768;2022-11-20T00:56:00;5.55;;;2.20;;
72813;SDS011;60945;48.516;-2.768;2022-11-20T00:58:29;3.90;;;2.05;;
72813;SDS011;60945;48.516;-2.768;2022-11-20T01:00:59;7.25;;;2.20;;
72813;SDS011;60945;48.516;-2.768;2022-11-20T01:03:27;5.13;;;2.00;;
72813;SDS011;60945;48.516;-2.768;2022-11-20T01:05:53;5.15;;;2.00;;
72813;SDS011;60945;48.516;-2.768;2022-11-20T01:08:18;4.90;;;2.22;;
72813;SDS011;60945;48.516;-2.768;2022-11-20T01:10:44;5.03;;;2.22;;
72813;SDS011;60945;48.516;-2.768;2022-11-20T01:13:09;5.65;;;1.95;;
72813;SDS011;60945;48.516;-2.768;2022-11-20T01:15:53;5.63;;;2.05;;
72813;SDS011;60945;48.516;-2.768;2022-11-20T01:18:19;3.80;;;1.77;;
72813;SDS011;60945;48.516;-2.768;2022-11-20T01:20:45;2.72;;;1.63;;
72813;SDS011;60945;48.516;-2.768;2022-11-20T01:23:10;5.30;;;1.92;;
72813;SDS011;60945;48.516;-2.768;2022-11-20T01:25:36;4.55;;;1.70;;
72813;SDS011;60945;48.516;-2.768;2022-11-20T01:28:02;3.47;;;1.42;;
72813;SDS011;60945;48.516;-2.768;2022-11-20T01:30:28;5.82;;;1.77;;
72813;SDS011;60945;48.516;-2.768;2022-11-20T01:32:54;2.88;;;1.63;;
72813;SDS011;60945;48.516;-2.768;2022-11-20T01:35:22;5.10;;;1.60;;
72813;SDS011;60945;48.516;-2.768;2022-11-20T01:37:47;3.40;;;1.85;;
72813;SDS011;60945;48.516;-2.768;2022-11-20T01:40:15;5.75;;;1.58;;
72813;SDS011;60945;48.516;-2.768;2022-11-20T01:42:44;6.15;;;1.77;;
72813;SDS011;60945;48.516;-2.768;2022-11-20T01:48:25;3.78;;;1.50;;
72813;SDS011;60945;48.516;-2.768;2022-11-20T01:50:55;5.05;;;1.52;;
72813;SDS011;60945;48.516;-2.768;2022-11-20T01:53:23;4.40;;;1.50;;
72813;SDS011;60945;48.516;-2.768;2022-11-20T01:55:55;2.30;;;1.30;;
72813;SDS011;60945;48.516;-2.768;2022-11-20T01:58:25;4.32;;;1.65;;
72813;SDS011;60945;48.516;-2.768;2022-11-20T02:00:59;5.25;;;1.77;;
72813;SDS011;60945;48.516;-2.768;2022-11-20T02:03:25;3.90;;;1.63;;
72813;SDS011;60945;48.516;-2.768;2022-11-20T02:05:53;3.72;;;1.67;;
72813;SDS011;60945;48.516;-2.768;2022-11-20T02:08:27;3.63;;;1.50;;
72813;SDS011;60945;48.516;-2.768;2022-11-20T02:10:53;3.28;;;1.48;;
72813;SDS011;60945;48.516;-2.768;2022-11-20T02:13:19;3.28;;;1.40;;
72813;SDS011;60945;48.516;-2.768;2022-11-20T02:16:03;2.67;;;1.38;;
72813;SDS011;60945;48.516;-2.768;2022-11-20T02:18:33;4.15;;;1.48;;
72813;SDS011;60945;48.516;-2.768;2022-11-20T02:21:01;3.03;;;1.40;;
72813;SDS011;60945;48.516;-2.768;2022-11-20T02:23:33;3.72;;;1.60;;
72813;SDS011;60945;48.516;-2.768;2022-11-20T02:26:10;2.97;;;1.50;;
72813;SDS011;60945;48.516;-2.768;2022-11-20T02:28:39;3.63;;;1.40;;
72813;SDS011;60945;48.516;-2.768;2022-11-20T02:31:05;4.90;;;1.50;;
72813;SDS011;60945;48.516;-2.768;2022-11-20T02:33:30;3.00;;;1.58;;
72813;SDS011;60945;48.516;-2.768;2022-11-20T02:35:56;2.50;;;1.30;;
72813;SDS011;60945;48.516;-2.768;2022-11-20T02:38:21;2.47;;;1.52;;
72813;SDS011;60945;48.516;-2.768;2022-11-20T02:40:47;3.15;;;1.35;;
72813;SDS011;60945;48.516;-2.768;2022-11-20T02:43:13;3.63;;;1.35;;
72813;SDS011;60945;48.516;-2.768;2022-11-20T02:45:40;1.90;;;1.08;;
72813;SDS011;60945;48.516;-2.768;2022-11-20T02:48:06;2.05;;;1.13;;
72813;SDS011;60945;48.516;-2.768;2022-11-20T02:50:32;4.28;;;1.23;;
72813;SDS011;60945;48.516;-2.768;2022-11-20T02:52:58;3.40;;;1.30;;
72813;SDS011;60945;48.516;-2.768;2022-11-20T02:55:24;2.92;;;1.13;;
72813;SDS011;60945;48.516;-2.768;2022-11-20T02:57:49;2.88;;;1.27;;
72813;SDS011;60945;48.516;-2.768;2022-11-20T03:00:15;2.20;;;1.17;;
72813;SDS011;60945;48.516;-2.768;2022-11-20T03:02:41;3.90;;;1.10;;
72813;SDS011;60945;48.516;-2.768;2022-11-20T03:05:07;4.47;;;1.15;;
72813;SDS011;60945;48.516;-2.768;2022-11-20T03:07:34;4.22;;;0.90;;
72813;SDS011;60945;48.516;-2.768;2022-11-20T03:10:00;2.72;;;0.90;;
72813;SDS011;60945;48.516;-2.768;2022-11-20T03:12:25;2.95;;;1.17;;
72813;SDS011;60945;48.516;-2.768;2022-11-20T03:14:51;1.10;;;0.60;;
72813;SDS011;60945;48.516;-2.768;2022-11-20T03:17:17;2.25;;;0.73;;
72813;SDS011;60945;48.516;-2.768;2022-11-20T03:19:42;1.00;;;0.70;;
72813;SDS011;60945;48.516;-2.768;2022-11-20T03:22:08;1.00;;;0.50;;
72813;SDS011;60945;48.516;-2.768;2022-11-20T03:24:34;0.88;;;0.50;;
72813;SDS011;60945;48.516;-2.768;2022-11-20T03:26:59;0.40;;;0.40;;
72813;SDS011;60945;48.516;-2.768;2022-11-20T03:29:25;1.50;;;0.50;;
72813;SDS011;60945;48.516;-2.768;2022-11-20T03:31:51;1.05;;;0.50;;
72813;SDS011;60945;48.516;-2.768;2022-11-20T03:34:16;1.00;;;0.45;;
72813;SDS011;60945;48.516;-2.768;2022-11-20T03:36:42;0.73;;;0.52;;
72813;SDS011;60945;48.516;-2.768;2022-11-20T03:39:08;1.45;;;0.80;;
72813;SDS011;60945;48.516;-2.768;2022-11-20T03:41:40;1.90;;;0.47;;
72813;SDS011;60945;48.516;-2.768;2022-11-20T03:44:08;1.63;;;0.45;;
72813;SDS011;60945;48.516;-2.768;2022-11-20T03:46:34;1.52;;;0.50;;
72813;SDS011;60945;48.516;-2.768;2022-11-20T03:49:00;1.17;;;0.52;;
72813;SDS011;60945;48.516;-2.768;2022-11-20T03:51:27;1.20;;;0.47;;
72813;SDS011;60945;48.516;-2.768;2022-11-20T03:53:55;1.00;;;0.50;;
72813;SDS011;60945;48.516;-2.768;2022-11-20T03:56:23;0.57;;;0.50;;
72813;SDS011;60945;48.516;-2.768;2022-11-20T03:58:50;1.15;;;0.45;;
72813;SDS011;60945;48.516;-2.768;2022-11-20T04:01:17;1.27;;;0.60;;
72813;SDS011;60945;48.516;-2.768;2022-11-20T04:03:45;1.35;;;0.50;;
72813;SDS011;60945;48.516;-2.768;2022-11-20T04:06:14;0.52;;;0.40;;
72813;SDS011;60945;48.516;-2.768;2022-11-20T04:08:44;1.30;;;0.40;;
72813;SDS011;60945;48.516;-2.768;2022-11-20T04:14:05;0.57;;;0.40;;
72813;SDS011;60945;48.516;-2.768;2022-11-20T04:16:33;0.85;;;0.30;;
72813;SDS011;60945;48.516;-2.768;2022-11-20T04:19:00;0.40;;;0.30;;
72813;SDS011;60945;48.516;-2.768;2022-11-20T04:21:28;0.63;;;0.30;;
72813;SDS011;60945;48.516;-2.768;2022-11-20T04:23:54;1.42;;;0.40;;
72813;SDS011;60945;48.516;-2.768;2022-11-20T04:26:21;0.98;;;0.30;;
72813;SDS011;60945;48.516;-2.768;2022-11-20T04:28:47;0.88;;;0.30;;
72813;SDS011;60945;48.516;-2.768;2022-11-20T04:31:14;0.65;;;0.35;;
72813;SDS011;60945;48.516;-2.768;2022-11-20T04:33:42;1.95;;;0.60;;
72813;SDS011;60945;48.516;-2.768;2022-11-20T04:36:13;0.50;;;0.30;;
72813;SDS011;60945;48.516;-2.768;2022-11-20T04:38:40;0.98;;;0.32;;
72813;SDS011;60945;48.516;-2.768;2022-11-20T04:41:07;1.20;;;0.40;;
72813;SDS011;60945;48.516;-2.768;2022-11-20T04:43:38;1.88;;;0.40;;
72813;SDS011;60945;48.516;-2.768;2022-11-20T04:46:04;0.90;;;0.30;;
72813;SDS011;60945;48.516;-2.768;2022-11-20T04:48:29;0.98;;;0.20;;
72813;SDS011;60945;48.516;-2.768;2022-11-20T04:50:55;1.85;;;0.40;;
72813;SDS011;60945;48.516;-2.768;2022-11-20T04:53:21;1.17;;;0.28;;
72813;SDS011;60945;48.516;-2.768;2022-11-20T04:55:47;2.30;;;0.45;;
72813;SDS011;60945;48.516;-2.768;2022-11-20T04:58:13;1.20;;;0.30;;
72813;SDS011;60945;48.516;-2.768;2022-11-20T05:00:39;5.53;;;0.70;;
72813;SDS011;60945;48.516;-2.768;2022-11-20T05:03:05;3.58;;;0.57;;
72813;SDS011;60945;48.516;-2.768;2022-11-20T05:05:31;3.80;;;0.95;;
72813;SDS011;60945;48.516;-2.768;2022-11-20T05:07:58;2.55;;;0.63;;
72813;SDS011;60945;48.516;-2.768;2022-11-20T05:10:24;4.18;;;0.68;;
72813;SDS011;60945;48.516;-2.768;2022-11-20T05:12:51;6.93;;;1.45;;
72813;SDS011;60945;48.516;-2.768;2022-11-20T05:15:16;5.43;;;0.90;;
72813;SDS011;60945;48.516;-2.768;2022-11-20T05:17:48;5.55;;;1.15;;
72813;SDS011;60945;48.516;-2.768;2022-11-20T05:20:15;6.93;;;1.40;;
72813;SDS011;60945;48.516;-2.768;2022-11-20T05:22:41;4.75;;;1.60;;
72813;SDS011;60945;48.516;-2.768;2022-11-20T05:25:06;4.72;;;1.27;;
72813;SDS011;60945;48.516;-2.768;2022-11-20T05:27:32;13.60;;;1.50;;
72813;SDS011;60945;48.516;-2.768;2022-11-20T05:29:58;8.43;;;1.63;;
72813;SDS011;60945;48.516;-2.768;2022-11-20T05:32:23;9.65;;;1.58;;
72813;SDS011;60945;48.516;-2.768;2022-11-20T05:34:50;9.48;;;1.75;;
72813;SDS011;60945;48.516;-2.768;2022-11-20T05:37:16;7.63;;;1.73;;
72813;SDS011;60945;48.516;-2.768;2022-11-20T05:39:42;8.07;;;1.75;;
72813;SDS011;60945;48.516;-2.768;2022-11-20T05:42:07;9.73;;;1.50;;
72813;SDS011;60945;48.516;-2.768;2022-11-20T05:44:52;8.68;;;2.55;;
72813;SDS011;60945;48.516;-2.768;2022-11-20T05:47:17;11.55;;;1.90;;
72813;SDS011;60945;48.516;-2.768;2022-11-20T05:49:43;12.40;;;1.95;;
72813;SDS011;60945;48.516;-2.768;2022-11-20T05:52:08;8.57;;;2.13;;
72813;SDS011;60945;48.516;-2.768;2022-11-20T05:54:34;9.25;;;1.77;;
72813;SDS011;60945;48.516;-2.768;2022-11-20T05:57:00;8.63;;;2.00;;
72813;SDS011;60945;48.516;-2.768;2022-11-20T05:59:25;13.40;;;2.10;;
72813;SDS011;60945;48.516;-2.768;2022-11-20T06:01:51;12.05;;;2.22;;
72813;SDS011;60945;48.516;-2.768;2022-11-20T06:04:16;15.07;;;2.10;;
72813;SDS011;60945;48.516;-2.768;2022-11-20T06:06:42;12.93;;;3.38;;
72813;SDS011;60945;48.516;-2.768;2022-11-20T06:09:08;11.30;;;2.00;;
72813;SDS011;60945;48.516;-2.768;2022-11-20T06:11:33;9.98;;;2.40;;
72813;SDS011;60945;48.516;-2.768;2022-11-20T06:13:59;11.05;;;2.00;;
72813;SDS011;60945;48.516;-2.768;2022-11-20T06:16:24;11.88;;;2.60;;
72813;SDS011;60945;48.516;-2.768;2022-11-20T06:18:50;14.75;;;2.40;;
72813;SDS011;60945;48.516;-2.768;2022-11-20T06:21:17;18.45;;;2.60;;
72813;SDS011;60945;48.516;-2.768;2022-11-20T06:23:44;13.45;;;2.22;;
72813;SDS011;60945;48.516;-2.768;2022-11-20T06:26:11;11.88;;;2.53;;
72813;SDS011;60945;48.516;-2.768;2022-11-20T06:28:45;13.13;;;2.40;;
72813;SDS011;60945;48.516;-2.768;2022-11-20T06:31:12;16.38;;;2.35;;
72813;SDS011;60945;48.516;-2.768;2022-11-20T06:33:39;14.32;;;2.65;;
72813;SDS011;60945;48.516;-2.768;2022-11-20T06:36:05;12.10;;;2.88;;
72813;SDS011;60945;48.516;-2.768;2022-11-20T06:38:31;17.55;;;2.45;;
72813;SDS011;60945;48.516;-2.768;2022-11-20T06:40:57;12.20;;;2.40;;
72813;SDS011;60945;48.516;-2.768;2022-11-20T06:43:23;8.32;;;1.98;;
72813;SDS011;60945;48.516;-2.768;2022-11-20T06:45:52;13.95;;;3.53;;
72813;SDS011;60945;48.516;-2.768;2022-11-20T06:48:19;13.23;;;2.58;;
72813;SDS011;60945;48.516;-2.768;2022-11-20T06:50:45;6.93;;;2.22;;
72813;SDS011;60945;48.516;-2.768;2022-11-20T06:53:10;15.20;;;3.40;;
72813;SDS011;60945;48.516;-2.768;2022-11-20T06:55:36;11.32;;;2.33;;
72813;SDS011;60945;48.516;-2.768;2022-11-20T06:58:01;9.38;;;1.95;;
72813;SDS011;60945;48.516;-2.768;2022-11-20T07:00:27;15.05;;;2.53;;
72813;SDS011;60945;48.516;-2.768;2022-11-20T07:02:53;12.75;;;2.58;;
72813;SDS011;60945;48.516;-2.768;2022-11-20T07:05:18;10.45;;;1.88;;
72813;SDS011;60945;48.516;-2.768;2022-11-20T07:07:44;10.90;;;3.85;;
72813;SDS011;60945;48.516;-2.768;2022-11-20T07:10:10;10.27;;;2.63;;
72813;SDS011;60945;48.516;-2.768;2022-11-20T07:12:35;16.13;;;2.67;;
72813;SDS011;60945;48.516;-2.768;2022-11-20T07:15:01;10.75;;;2.15;;
72813;SDS011;60945;48.516;-2.768;2022-11-20T07:17:27;6.45;;;1.92;;
72813;SDS011;60945;48.516;-2.768;2022-11-20T07:19:53;16.33;;;2.75;;
72813;SDS011;60945;48.516;-2.768;2022-11-20T07:22:18;14.15;;;2.80;;
72813;SDS011;60945;48.516;-2.768;2022-11-20T07:24:46;11.00;;;2.42;;
72813;SDS011;60945;48.516;-2.768;2022-11-20T07:27:13;11.70;;;2.45;;
72813;SDS011;60945;48.516;-2.768;2022-11-20T07:29:38;11.93;;;3.00;;
72813;SDS011;60945;48.516;-2.768;2022-11-20T07:32:04;16.20;;;3.53;;
72813;SDS011;60945;48.516;-2.768;2022-11-20T07:34:30;9.43;;;2.03;;
72813;SDS011;60945;48.516;-2.768;2022-11-20T07:36:55;17.85;;;3.55;;
72813;SDS011;60945;48.516;-2.768;2022-11-20T07:39:21;22.55;;;3.35;;
72813;SDS011;60945;48.516;-2.768;2022-11-20T07:41:47;14.70;;;2.90;;
72813;SDS011;60945;48.516;-2.768;2022-11-20T07:44:12;16.08;;;3.00;;
72813;SDS011;60945;48.516;-2.768;2022-11-20T07:46:38;18.17;;;4.20;;
72813;SDS011;60945;48.516;-2.768;2022-11-20T07:49:03;17.85;;;3.83;;
72813;SDS011;60945;48.516;-2.768;2022-11-20T07:51:29;21.20;;;3.60;;
72813;SDS011;60945;48.516;-2.768;2022-11-20T07:53:55;18.50;;;3.17;;
72813;SDS011;60945;48.516;-2.768;2022-11-20T07:56:20;24.33;;;3.78;;
72813;SDS011;60945;48.516;-2.768;2022-11-20T07:58:46;16.13;;;3.85;;
72813;SDS011;60945;48.516;-2.768;2022-11-20T08:01:11;21.13;;;4.32;;
72813;SDS011;60945;48.516;-2.768;2022-11-20T08:03:37;13.20;;;3.05;;
72813;SDS011;60945;48.516;-2.768;2022-11-20T08:06:03;15.77;;;4.15;;
72813;SDS011;60945;48.516;-2.768;2022-11-20T08:08:29;20.48;;;3.83;;
72813;SDS011;60945;48.516;-2.768;2022-11-20T08:10:58;13.75;;;3.58;;
72813;SDS011;60945;48.516;-2.768;2022-11-20T08:13:47;20.75;;;5.15;;
72813;SDS011;60945;48.516;-2.768;2022-11-20T08:16:31;17.58;;;3.47;;
72813;SDS011;60945;48.516;-2.768;2022-11-20T08:18:57;21.83;;;3.47;;
72813;SDS011;60945;48.516;-2.768;2022-11-20T08:21:22;16.40;;;3.45;;
72813;SDS011;60945;48.516;-2.768;2022-11-20T08:23:48;21.95;;;4.80;;
72813;SDS011;60945;48.516;-2.768;2022-11-20T08:26:14;14.90;;;3.67;;
72813;SDS011;60945;48.516;-2.768;2022-11-20T08:28:40;16.35;;;3.75;;
72813;SDS011;60945;48.516;-2.768;2022-11-20T08:31:05;19.05;;;4.07;;
72813;SDS011;60945;48.516;-2.768;2022-11-20T08:33:31;17.05;;;5.05;;
72813;SDS011;60945;48.516;-2.768;2022-11-20T08:36:04;16.15;;;3.90;;
72813;SDS011;60945;48.516;-2.768;2022-11-20T08:40:59;21.38;;;3.47;;
72813;SDS011;60945;48.516;-2.768;2022-11-20T08:43:44;15.88;;;3.85;;
72813;SDS011;60945;48.516;-2.768;2022-11-20T08:46:10;21.45;;;4.38;;
72813;SDS011;60945;48.516;-2.768;2022-11-20T08:48:36;22.92;;;3.97;;
72813;SDS011;60945;48.516;-2.768;2022-11-20T08:51:01;16.08;;;3.35;;
72813;SDS011;60945;48.516;-2.768;2022-11-20T08:53:27;22.35;;;4.30;;
72813;SDS011;60945;48.516;-2.768;2022-11-20T08:55:55;20.58;;;4.13;;
72813;SDS011;60945;48.516;-2.768;2022-11-20T08:58:24;21.35;;;4.05;;
72813;SDS011;60945;48.516;-2.768;2022-11-20T09:00:50;27.58;;;5.00;;
72813;SDS011;60945;48.516;-2.768;2022-11-20T09:03:16;19.27;;;5.22;;
72813;SDS011;60945;48.516;-2.768;2022-11-20T09:05:42;18.23;;;4.53;;
72813;SDS011;60945;48.516;-2.768;2022-11-20T09:08:10;18.48;;;3.78;;
72813;SDS011;60945;48.516;-2.768;2022-11-20T09:10:36;22.48;;;4.72;;
72813;SDS011;60945;48.516;-2.768;2022-11-20T09:13:04;18.42;;;4.63;;
72813;SDS011;60945;48.516;-2.768;2022-11-20T09:15:30;21.58;;;4.47;;
72813;SDS011;60945;48.516;-2.768;2022-11-20T09:17:58;16.23;;;4.00;;
72813;SDS011;60945;48.516;-2.768;2022-11-20T09:20:25;15.52;;;3.40;;
72813;SDS011;60945;48.516;-2.768;2022-11-20T09:22:53;16.35;;;4.53;;
72813;SDS011;60945;48.516;-2.768;2022-11-20T09:25:19;17.25;;;3.63;;
72813;SDS011;60945;48.516;-2.768;2022-11-20T09:27:45;14.77;;;4.05;;
72813;SDS011;60945;48.516;-2.768;2022-11-20T09:30:12;28.02;;;4.35;;
72813;SDS011;60945;48.516;-2.768;2022-11-20T09:32:39;17.52;;;3.63;;
72813;SDS011;60945;48.516;-2.768;2022-11-20T09:35:05;18.85;;;4.45;;
72813;SDS011;60945;48.516;-2.768;2022-11-20T09:37:33;18.75;;;3.65;;
72813;SDS011;60945;48.516;-2.768;2022-11-20T09:39:59;21.27;;;3.42;;
72813;SDS011;60945;48.516;-2.768;2022-11-20T09:42:41;21.08;;;4.30;;
72813;SDS011;60945;48.516;-2.768;2022-11-20T09:56:08;14.68;;;3.30;;
72813;SDS011;60945;48.516;-2.768;2022-11-20T09:58:42;13.18;;;3.60;;
72813;SDS011;60945;48.516;-2.768;2022-11-20T10:01:15;15.13;;;3.72;;
72813;SDS011;60945;48.516;-2.768;2022-11-20T10:03:54;13.25;;;3.50;;
72813;SDS011;60945;48.516;-2.768;2022-11-20T10:06:23;14.40;;;3.40;;
72813;SDS011;60945;48.516;-2.768;2022-11-20T10:14:52;12.60;;;3.60;;
72813;SDS011;60945;48.516;-2.768;2022-11-20T10:17:48;10.82;;;3.05;;
72813;SDS011;60945;48.516;-2.768;2022-11-20T10:20:24;14.93;;;3.35;;
72813;SDS011;60945;48.516;-2.768;2022-11-20T10:26:04;10.70;;;3.42;;
72813;SDS011;60945;48.516;-2.768;2022-11-20T10:31:14;12.63;;;3.35;;
72813;SDS011;60945;48.516;-2.768;2022-11-20T10:33:54;13.85;;;3.28;;
72813;SDS011;60945;48.516;-2.768;2022-11-20T10:36:28;16.33;;;3.42;;
72813;SDS011;60945;48.516;-2.768;2022-11-20T10:39:05;16.23;;;3.00;;
72813;SDS011;60945;48.516;-2.768;2022-11-20T10:41:40;12.07;;;3.30;;
72813;SDS011;60945;48.516;-2.768;2022-11-20T10:47:11;14.93;;;3.33;;
72813;SDS011;60945;48.516;-2.768;2022-11-20T10:49:43;15.15;;;3.45;;
72813;SDS011;60945;48.516;-2.768;2022-11-20T10:52:19;14.40;;;3.45;;
72813;SDS011;60945;48.516;-2.768;2022-11-20T10:55:07;15.38;;;3.50;;
72813;SDS011;60945;48.516;-2.768;2022-11-20T10:58:12;12.63;;;2.95;;
72813;SDS011;60945;48.516;-2.768;2022-11-20T11:00:42;13.82;;;2.85;;
72813;SDS011;60945;48.516;-2.768;2022-11-20T11:03:20;13.32;;;3.58;;
72813;SDS011;60945;48.516;-2.768;2022-11-20T11:05:58;12.95;;;2.72;;
72813;SDS011;60945;48.516;-2.768;2022-11-20T11:08:31;13.23;;;3.28;;
72813;SDS011;60945;48.516;-2.768;2022-11-20T11:11:02;14.05;;;3.80;;
72813;SDS011;60945;48.516;-2.768;2022-11-20T11:13:35;16.45;;;3.00;;
72813;SDS011;60945;48.516;-2.768;2022-11-20T11:16:01;11.50;;;3.25;;
72813;SDS011;60945;48.516;-2.768;2022-11-20T11:18:29;14.85;;;3.17;;
72813;SDS011;60945;48.516;-2.768;2022-11-20T11:20:57;12.20;;;3.35;;
72813;SDS011;60945;48.516;-2.768;2022-11-20T11:23:36;12.82;;;4.32;;
72813;SDS011;60945;48.516;-2.768;2022-11-20T11:26:24;15.48;;;2.97;;
72813;SDS011;60945;48.516;-2.768;2022-11-20T11:28:58;12.55;;;3.28;;
72813;SDS011;60945;48.516;-2.768;2022-11-20T11:31:29;15.35;;;3.45;;
72813;SDS011;60945;48.516;-2.768;2022-11-20T11:34:12;12.88;;;3.15;;
72813;SDS011;60945;48.516;-2.768;2022-11-20T11:36:40;13.80;;;2.70;;
72813;SDS011;60945;48.516;-2.768;2022-11-20T11:39:11;11.75;;;3.10;;
72813;SDS011;60945;48.516;-2.768;2022-11-20T11:41:40;18.17;;;3.03;;
72813;SDS011;60945;48.516;-2.768;2022-11-20T11:44:15;14.88;;;4.00;;
72813;SDS011;60945;48.516;-2.768;2022-11-20T11:47:01;14.55;;;2.80;;
72813;SDS011;60945;48.516;-2.768;2022-11-20T11:49:28;15.65;;;2.72;;
72813;SDS011;60945;48.516;-2.768;2022-11-20T11:52:04;16.98;;;3.35;;
72813;SDS011;60945;48.516;-2.768;2022-11-20T11:54:54;11.07;;;2.70;;
72813;SDS011;60945;48.516;-2.768;2022-11-20T12:10:57;13.43;;;2.78;;
72813;SDS011;60945;48.516;-2.768;2022-11-20T12:13:39;13.48;;;2.83;;
72813;SDS011;60945;48.516;-2.768;2022-11-20T12:16:19;10.48;;;2.28;;
72813;SDS011;60945;48.516;-2.768;2022-11-20T12:18:46;14.68;;;3.08;;
72813;SDS011;60945;48.516;-2.768;2022-11-20T12:21:19;8.00;;;2.63;;
72813;SDS011;60945;48.516;-2.768;2022-11-20T12:34:47;10.50;;;2.63;;
72813;SDS011;60945;48.516;-2.768;2022-11-20T12:37:45;11.45;;;3.00;;
72813;SDS011;60945;48.516;-2.768;2022-11-20T12:40:32;18.50;;;3.20;;
72813;SDS011;60945;48.516;-2.768;2022-11-20T12:43:21;9.85;;;2.20;;
72813;SDS011;60945;48.516;-2.768;2022-11-20T12:55:11;9.80;;;2.33;;
72813;SDS011;60945;48.516;-2.768;2022-11-20T13:00:27;13.88;;;2.90;;
72813;SDS011;60945;48.516;-2.768;2022-11-20T13:05:37;11.77;;;2.45;;
72813;SDS011;60945;48.516;-2.768;2022-11-20T13:08:16;7.88;;;1.67;;
72813;SDS011;60945;48.516;-2.768;2022-11-20T13:11:00;10.48;;;1.80;;
72813;SDS011;60945;48.516;-2.768;2022-11-20T13:16:15;11.90;;;2.63;;
72813;SDS011;60945;48.516;-2.768;2022-11-20T13:18:56;8.23;;;2.00;;
72813;SDS011;60945;48.516;-2.768;2022-11-20T13:21:44;9.18;;;2.30;;
72813;SDS011;60945;48.516;-2.768;2022-11-20T13:26:58;8.20;;;2.00;;
72813;SDS011;60945;48.516;-2.768;2022-11-20T13:32:04;12.05;;;2.10;;
72813;SDS011;60945;48.516;-2.768;2022-11-20T13:34:37;7.72;;;2.85;;
72813;SDS011;60945;48.516;-2.768;2022-11-20T13:37:02;8.73;;;1.83;;
72813;SDS011;60945;48.516;-2.768;2022-11-20T13:39:32;9.07;;;2.28;;
72813;SDS011;60945;48.516;-2.768;2022-11-20T13:42:43;10.32;;;2.28;;
72813;SDS011;60945;48.516;-2.768;2022-11-20T13:44:55;8.88;;;1.58;;
72813;SDS011;60945;48.516;-2.768;2022-11-20T13:47:33;7.13;;;1.92;;
72813;SDS011;60945;48.516;-2.768;2022-11-20T13:50:00;6.90;;;2.00;;
72813;SDS011;60945;48.516;-2.768;2022-11-20T14:00:29;9.63;;;1.73;;
72813;SDS011;60945;48.516;-2.768;2022-11-20T14:03:07;8.45;;;2.03;;
72813;SDS011;60945;48.516;-2.768;2022-11-20T14:05:40;7.10;;;1.95;;
72813;SDS011;60945;48.516;-2.768;2022-11-20T14:08:20;8.30;;;2.10;;
72813;SDS011;60945;48.516;-2.768;2022-11-20T14:11:16;6.45;;;1.90;;
72813;SDS011;60945;48.516;-2.768;2022-11-20T14:16:25;7.55;;;2.45;;
72813;SDS011;60945;48.516;-2.768;2022-11-20T14:18:52;8.45;;;2.00;;
72813;SDS011;60945;48.516;-2.768;2022-11-20T14:21:26;7.32;;;1.95;;
72813;SDS011;60945;48.516;-2.768;2022-11-20T14:24:04;8.30;;;2.13;;
72813;SDS011;60945;48.516;-2.768;2022-11-20T14:26:31;6.70;;;2.25;;
72813;SDS011;60945;48.516;-2.768;2022-11-20T14:28:58;8.25;;;2.10;;
72813;SDS011;60945;48.516;-2.768;2022-11-20T14:31:25;8.23;;;1.92;;
72813;SDS011;60945;48.516;-2.768;2022-11-20T14:33:52;7.82;;;2.22;;
72813;SDS011;60945;48.516;-2.768;2022-11-20T14:36:22;6.45;;;2.20;;
72813;SDS011;60945;48.516;-2.768;2022-11-20T14:38:50;6.68;;;2.25;;
72813;SDS011;60945;48.516;-2.768;2022-11-20T14:41:23;6.13;;;2.15;;
72813;SDS011;60945;48.516;-2.768;2022-11-20T14:46:34;5.55;;;1.98;;
72813;SDS011;60945;48.516;-2.768;2022-11-20T14:49:00;9.05;;;2.55;;
72813;SDS011;60945;48.516;-2.768;2022-11-20T14:51:35;8.57;;;2.25;;
72813;SDS011;60945;48.516;-2.768;2022-11-20T14:56:56;9.50;;;2.63;;
72813;SDS011;60945;48.516;-2.768;2022-11-20T14:59:30;8.35;;;2.17;;
72813;SDS011;60945;48.516;-2.768;2022-11-20T15:02:01;11.38;;;2.72;;
72813;SDS011;60945;48.516;-2.768;2022-11-20T15:04:34;8.48;;;2.42;;
72813;SDS011;60945;48.516;-2.768;2022-11-20T15:07:22;9.73;;;2.65;;
72813;SDS011;60945;48.516;-2.768;2022-11-20T15:12:40;6.68;;;2.30;;
72813;SDS011;60945;48.516;-2.768;2022-11-20T15:15:12;12.43;;;2.25;;
72813;SDS011;60945;48.516;-2.768;2022-11-20T15:17:42;12.98;;;2.55;;
72813;SDS011;60945;48.516;-2.768;2022-11-20T15:20:14;8.25;;;2.13;;
72813;SDS011;60945;48.516;-2.768;2022-11-20T15:22:41;10.93;;;2.10;;
72813;SDS011;60945;48.516;-2.768;2022-11-20T15:25:11;9.85;;;2.28;;
72813;SDS011;60945;48.516;-2.768;2022-11-20T15:27:38;8.50;;;2.28;;
72813;SDS011;60945;48.516;-2.768;2022-11-20T15:30:15;9.80;;;2.00;;
72813;SDS011;60945;48.516;-2.768;2022-11-20T15:32:42;7.65;;;2.28;;
72813;SDS011;60945;48.516;-2.768;2022-11-20T15:35:09;9.52;;;2.15;;
72813;SDS011;60945;48.516;-2.768;2022-11-20T15:37:35;7.85;;;2.17;;
72813;SDS011;60945;48.516;-2.768;2022-11-20T15:40:01;13.10;;;2.70;;
72813;SDS011;60945;48.516;-2.768;2022-11-20T15:42:27;9.93;;;2.20;;
72813;SDS011;60945;48.516;-2.768;2022-11-20T15:44:52;9.18;;;2.60;;
72813;SDS011;60945;48.516;-2.768;2022-11-20T15:47:19;8.00;;;2.42;;
72813;SDS011;60945;48.516;-2.768;2022-11-20T15:49:47;10.90;;;2.22;;
72813;SDS011;60945;48.516;-2.768;2022-11-20T15:52:13;15.82;;;2.88;;
72813;SDS011;60945;48.516;-2.768;2022-11-20T15:54:39;11.65;;;2.47;;
72813;SDS011;60945;48.516;-2.768;2022-11-20T15:57:07;8.57;;;2.08;;
72813;SDS011;60945;48.516;-2.768;2022-11-20T15:59:33;10.02;;;2.58;;
72813;SDS011;60945;48.516;-2.768;2022-11-20T16:01:59;9.50;;;2.78;;
72813;SDS011;60945;48.516;-2.768;2022-11-20T16:04:25;8.93;;;2.30;;
72813;SDS011;60945;48.516;-2.768;2022-11-20T16:06:51;10.35;;;2.55;;
72813;SDS011;60945;48.516;-2.768;2022-11-20T16:09:16;9.02;;;2.20;;
72813;SDS011;60945;48.516;-2.768;2022-11-20T16:11:42;10.30;;;2.08;;
72813;SDS011;60945;48.516;-2.768;2022-11-20T16:14:09;9.70;;;2.28;;
72813;SDS011;60945;48.516;-2.768;2022-11-20T16:16:54;8.48;;;2.35;;
72813;SDS011;60945;48.516;-2.768;2022-11-20T16:19:19;7.82;;;2.72;;
72813;SDS011;60945;48.516;-2.768;2022-11-20T16:21:45;11.18;;;2.88;;